sensor_id;sensor_type;location;lat;lon;timestamp;pressure;altitude;pressure_sealevel;temperature;humidity
30182;BME280;16990;49.056;9.240;2022-11-20T00:00:16;98280.34;;;3.88;100.00
30182;BME280;16990;49.056;9.240;2022-11-20T00:02:42;98292.53;;;3.69;100.00
30182;BME280;16990;49.056;9.240;2022-11-20T00:05:10;98284.78;;;3.54;100.00
30182;BME280;16990;49.056;9.240;2022-11-20T00:07:37;98292.69;;;3.54;100.00
30182;BME280;16990;49.056;9.240;2022-11-20T00:10:04;98289.69;;;3.70;100.00
30182;BME280;16990;49.056;9.240;2022-11-20T00:12:31;98281.78;;;3.90;100.00
30182;BME280;16990;49.056;9.240;2022-11-20T00:14:58;98271.81;;;3.92;100.00
30182;BME280;16990;49.056;9.240;2022-11-20T00:17:25;98297.63;;;3.70;100.00
30182;BME280;16990;49.056;9.240;2022-11-20T00:19:51;98290.09;;;3.67;100.00
30182;BME280;16990;49.056;9.240;2022-11-20T00:22:19;98279.72;;;3.72;100.00
30182;BME280;16990;49.056;9.240;2022-11-20T00:24:46;98286.63;;;3.73;100.00
30182;BME280;16990;49.056;9.240;2022-11-20T00:27:13;98295.41;;;3.80;100.00
30182;BME280;16990;49.056;9.240;2022-11-20T00:29:39;98284.41;;;3.70;100.00
30182;BME280;16990;49.056;9.240;2022-11-20T00:32:06;98285.66;;;3.81;100.00
30182;BME280;16990;49.056;9.240;2022-11-20T00:34:33;98285.63;;;3.74;100.00
30182;BME280;16990;49.056;9.240;2022-11-20T00:37:00;98288.50;;;3.79;100.00
30182;BME280;16990;49.056;9.240;2022-11-20T00:39:28;98279.53;;;3.80;100.00
30182;BME280;16990;49.056;9.240;2022-11-20T00:41:54;98284.03;;;3.87;100.00
30182;BME280;16990;49.056;9.240;2022-11-20T00:44:21;98288.50;;;3.86;100.00
30182;BME280;16990;49.056;9.240;2022-11-20T00:46:47;98278.31;;;3.76;100.00
30182;BME280;16990;49.056;9.240;2022-11-20T00:49:14;98288.06;;;3.76;100.00
30182;BME280;16990;49.056;9.240;2022-11-20T00:51:41;98286.25;;;3.76;100.00
30182;BME280;16990;49.056;9.240;2022-11-20T00:54:07;98288.06;;;3.76;100.00
30182;BME280;16990;49.056;9.240;2022-11-20T00:56:35;98284.22;;;3.78;100.00
30182;BME280;16990;49.056;9.240;2022-11-20T00:59:02;98286.47;;;3.81;100.00
30182;BME280;16990;49.056;9.240;2022-11-20T01:01:29;98289.31;;;3.87;100.00
30182;BME280;16990;49.056;9.240;2022-11-20T01:03:57;98283.44;;;3.91;100.00
30182;BME280;16990;49.056;9.240;2022-11-20T01:06:26;98287.69;;;3.92;100.00
30182;BME280;16990;49.056;9.240;2022-11-20T01:08:54;98284.84;;;3.94;100.00
30182;BME280;16990;49.056;9.240;2022-11-20T01:11:23;98281.78;;;3.97;100.00
30182;BME280;16990;49.056;9.240;2022-11-20T01:13:52;98279.16;;;4.03;100.00
30182;BME280;16990;49.056;9.240;2022-11-20T01:16:21;98279.97;;;4.04;100.00
30182;BME280;16990;49.056;9.240;2022-11-20T01:18:50;98290.56;;;4.04;100.00
30182;BME280;16990;49.056;9.240;2022-11-20T01:21:20;98295.66;;;4.05;100.00
30182;BME280;16990;49.056;9.240;2022-11-20T01:23:48;98287.31;;;4.09;100.00
30182;BME280;16990;49.056;9.240;2022-11-20T01:26:17;98283.44;;;4.04;100.00
30182;BME280;16990;49.056;9.240;2022-11-20T01:28:44;98293.00;;;4.05;100.00
30182;BME280;16990;49.056;9.240;2022-11-20T01:31:15;98287.72;;;4.05;100.00
30182;BME280;16990;49.056;9.240;2022-11-20T01:33:44;98289.13;;;4.08;100.00
30182;BME280;16990;49.056;9.240;2022-11-20T01:36:11;98291.38;;;4.24;100.00
30182;BME280;16990;49.056;9.240;2022-11-20T01:38:38;98287.31;;;4.22;100.00
30182;BME280;16990;49.056;9.240;2022-11-20T01:41:06;98288.94;;;4.30;100.00
30182;BME280;16990;49.056;9.240;2022-11-20T01:43:34;98291.59;;;4.30;100.00
30182;BME280;16990;49.056;9.240;2022-11-20T01:46:03;98280.97;;;4.43;100.00
30182;BME280;16990;49.056;9.240;2022-11-20T01:48:37;98275.09;;;4.41;100.00
30182;BME280;16990;49.056;9.240;2022-11-20T01:51:07;98277.56;;;4.36;100.00
30182;BME280;16990;49.056;9.240;2022-11-20T01:53:38;98274.81;;;4.76;100.00
30182;BME280;16990;49.056;9.240;2022-11-20T01:56:08;98275.47;;;4.58;100.00
30182;BME280;16990;49.056;9.240;2022-11-20T01:58:38;98261.22;;;4.52;100.00
30182;BME280;16990;49.056;9.240;2022-11-20T02:01:07;98264.06;;;4.57;100.00
30182;BME280;16990;49.056;9.240;2022-11-20T02:03:35;98271.41;;;4.48;100.00
30182;BME280;16990;49.056;9.240;2022-11-20T02:06:06;98278.75;;;4.46;100.00
30182;BME280;16990;49.056;9.240;2022-11-20T02:08:37;98279.56;;;4.47;100.00
30182;BME280;16990;49.056;9.240;2022-11-20T02:11:04;98264.91;;;4.51;100.00
30182;BME280;16990;49.056;9.240;2022-11-20T02:13:31;98269.56;;;4.56;100.00
30182;BME280;16990;49.056;9.240;2022-11-20T02:16:10;98264.91;;;4.51;100.00
30182;BME280;16990;49.056;9.240;2022-11-20T02:18:39;98255.47;;;4.68;100.00
30182;BME280;16990;49.056;9.240;2022-11-20T02:21:17;98265.69;;;4.65;100.00
30182;BME280;16990;49.056;9.240;2022-11-20T02:24:05;98262.38;;;4.83;100.00
30182;BME280;16990;49.056;9.240;2022-11-20T02:26:37;98275.66;;;4.69;100.00
30182;BME280;16990;49.056;9.240;2022-11-20T02:29:04;98270.16;;;4.64;100.00
30182;BME280;16990;49.056;9.240;2022-11-20T02:31:36;98270.13;;;4.78;100.00
30182;BME280;16990;49.056;9.240;2022-11-20T02:34:03;98270.94;;;4.78;100.00
30182;BME280;16990;49.056;9.240;2022-11-20T02:36:32;98270.94;;;4.78;100.00
30182;BME280;16990;49.056;9.240;2022-11-20T02:39:00;98274.19;;;4.80;100.00
30182;BME280;16990;49.056;9.240;2022-11-20T02:41:33;98275.41;;;4.84;100.00
30182;BME280;16990;49.056;9.240;2022-11-20T02:44:00;98273.94;;;5.02;100.00
30182;BME280;16990;49.056;9.240;2022-11-20T02:46:27;98268.03;;;4.93;100.00
30182;BME280;16990;49.056;9.240;2022-11-20T02:48:54;98270.13;;;4.84;100.00
30182;BME280;16990;49.056;9.240;2022-11-20T02:51:20;98265.63;;;4.92;100.00
30182;BME280;16990;49.056;9.240;2022-11-20T02:53:47;98259.53;;;4.84;100.00
30182;BME280;16990;49.056;9.240;2022-11-20T02:56:14;98256.25;;;4.89;100.00
30182;BME280;16990;49.056;9.240;2022-11-20T02:58:42;98251.34;;;4.86;100.00
30182;BME280;16990;49.056;9.240;2022-11-20T03:01:08;98259.06;;;5.01;100.00
30182;BME280;16990;49.056;9.240;2022-11-20T03:03:35;98261.16;;;4.85;100.00
30182;BME280;16990;49.056;9.240;2022-11-20T03:06:02;98262.78;;;4.86;100.00
30182;BME280;16990;49.056;9.240;2022-11-20T03:08:29;98260.31;;;4.98;100.00
30182;BME280;16990;49.056;9.240;2022-11-20T03:10:56;98255.16;;;5.10;100.00
30182;BME280;16990;49.056;9.240;2022-11-20T03:13:22;98257.03;;;5.03;100.00
30182;BME280;16990;49.056;9.240;2022-11-20T03:15:52;98252.06;;;5.20;100.00
30182;BME280;16990;49.056;9.240;2022-11-20T03:18:19;98258.19;;;5.14;100.00
30182;BME280;16990;49.056;9.240;2022-11-20T03:20:45;98249.66;;;5.11;100.00
30182;BME280;16990;49.056;9.240;2022-11-20T03:23:12;98240.69;;;5.13;100.00
30182;BME280;16990;49.056;9.240;2022-11-20T03:25:39;98245.38;;;5.10;100.00
30182;BME280;16990;49.056;9.240;2022-11-20T03:28:05;98241.88;;;5.17;100.00
30182;BME280;16990;49.056;9.240;2022-11-20T03:30:32;98239.03;;;5.11;100.00
30182;BME280;16990;49.056;9.240;2022-11-20T03:33:00;98244.31;;;5.18;100.00
30182;BME280;16990;49.056;9.240;2022-11-20T03:35:27;98241.03;;;5.23;100.00
30182;BME280;16990;49.056;9.240;2022-11-20T03:37:53;98254.13;;;5.56;100.00
30182;BME280;16990;49.056;9.240;2022-11-20T03:40:20;98231.69;;;5.20;100.00
30182;BME280;16990;49.056;9.240;2022-11-20T03:42:47;98239.78;;;5.32;100.00
30182;BME280;16990;49.056;9.240;2022-11-20T03:45:14;98232.44;;;5.34;100.00
30182;BME280;16990;49.056;9.240;2022-11-20T03:47:41;98238.56;;;5.28;100.00
30182;BME280;16990;49.056;9.240;2022-11-20T03:50:11;98241.50;;;5.51;100.00
30182;BME280;16990;49.056;9.240;2022-11-20T03:52:38;98238.84;;;5.51;100.00
30182;BME280;16990;49.056;9.240;2022-11-20T03:55:06;98246.97;;;5.57;100.00
30182;BME280;16990;49.056;9.240;2022-11-20T03:57:32;98237.56;;;5.61;100.00
30182;BME280;16990;49.056;9.240;2022-11-20T03:59:59;98233.97;;;5.48;100.00
30182;BME280;16990;49.056;9.240;2022-11-20T04:02:26;98241.88;;;5.55;100.00
30182;BME280;16990;49.056;9.240;2022-11-20T04:04:52;98242.28;;;5.59;100.00
30182;BME280;16990;49.056;9.240;2022-11-20T04:07:20;98234.22;;;5.40;100.00
30182;BME280;16990;49.056;9.240;2022-11-20T04:09:47;98238.84;;;5.51;100.00
30182;BME280;16990;49.056;9.240;2022-11-20T04:12:14;98244.22;;;5.38;100.00
30182;BME280;16990;49.056;9.240;2022-11-20T04:14:40;98246.88;;;5.38;100.00
30182;BME280;16990;49.056;9.240;2022-11-20T04:17:07;98240.22;;;5.22;100.00
30182;BME280;16990;49.056;9.240;2022-11-20T04:19:34;98239.22;;;5.17;100.00
30182;BME280;16990;49.056;9.240;2022-11-20T04:22:00;98239.81;;;5.19;100.00
30182;BME280;16990;49.056;9.240;2022-11-20T04:24:28;98236.75;;;5.22;100.00
30182;BME280;16990;49.056;9.240;2022-11-20T04:26:55;98238.56;;;5.28;100.00
30182;BME280;16990;49.056;9.240;2022-11-20T04:29:22;98235.31;;;5.26;100.00
30182;BME280;16990;49.056;9.240;2022-11-20T04:31:48;98226.25;;;5.40;100.00
30182;BME280;16990;49.056;9.240;2022-11-20T04:34:15;98238.09;;;5.38;100.00
30182;BME280;16990;49.056;9.240;2022-11-20T04:36:42;98228.75;;;5.35;100.00
30182;BME280;16990;49.056;9.240;2022-11-20T04:39:12;98230.88;;;5.20;100.00
30182;BME280;16990;49.056;9.240;2022-11-20T04:41:41;98227.06;;;5.41;100.00
30182;BME280;16990;49.056;9.240;2022-11-20T04:44:08;98228.72;;;5.42;100.00
30182;BME280;16990;49.056;9.240;2022-11-20T04:46:37;98229.25;;;5.50;100.00
30182;BME280;16990;49.056;9.240;2022-11-20T04:49:05;98232.59;;;5.39;100.00
30182;BME280;16990;49.056;9.240;2022-11-20T04:51:31;98235.47;;;5.31;100.00
30182;BME280;16990;49.056;9.240;2022-11-20T04:53:58;98231.41;;;5.35;100.00
30182;BME280;16990;49.056;9.240;2022-11-20T04:56:25;98225.66;;;5.38;100.00
30182;BME280;16990;49.056;9.240;2022-11-20T04:58:53;98213.59;;;5.42;100.00
30182;BME280;16990;49.056;9.240;2022-11-20T05:01:23;98225.81;;;5.43;100.00
30182;BME280;16990;49.056;9.240;2022-11-20T05:03:50;98220.53;;;5.43;100.00
30182;BME280;16990;49.056;9.240;2022-11-20T05:06:18;98221.38;;;5.44;100.00
30182;BME280;16990;49.056;9.240;2022-11-20T05:08:46;98216.34;;;5.61;100.00
30182;BME280;16990;49.056;9.240;2022-11-20T05:11:14;98215.16;;;5.57;100.00
30182;BME280;16990;49.056;9.240;2022-11-20T05:13:42;98211.91;;;5.54;100.00
30182;BME280;16990;49.056;9.240;2022-11-20T05:16:11;98219.28;;;5.46;100.00
30182;BME280;16990;49.056;9.240;2022-11-20T05:18:39;98214.19;;;5.76;100.00
30182;BME280;16990;49.056;9.240;2022-11-20T05:21:07;98229.84;;;5.52;100.00
30182;BME280;16990;49.056;9.240;2022-11-20T05:23:34;98219.22;;;5.59;100.00
30182;BME280;16990;49.056;9.240;2022-11-20T05:26:01;98226.97;;;5.61;100.00
30182;BME280;16990;49.056;9.240;2022-11-20T05:28:30;98222.72;;;5.53;100.00
30182;BME280;16990;49.056;9.240;2022-11-20T05:31:04;98221.22;;;5.64;100.00
30182;BME280;16990;49.056;9.240;2022-11-20T05:33:32;98221.06;;;5.59;100.00
30182;BME280;16990;49.056;9.240;2022-11-20T05:35:59;98223.44;;;5.67;100.00
30182;BME280;16990;49.056;9.240;2022-11-20T05:38:26;98219.97;;;5.66;100.00
30182;BME280;16990;49.056;9.240;2022-11-20T05:40:53;98222.84;;;5.65;100.00
30182;BME280;16990;49.056;9.240;2022-11-20T05:43:19;98223.53;;;5.53;100.00
30182;BME280;16990;49.056;9.240;2022-11-20T05:45:52;98223.59;;;5.72;100.00
30182;BME280;16990;49.056;9.240;2022-11-20T05:48:18;98216.97;;;5.63;100.00
30182;BME280;16990;49.056;9.240;2022-11-20T05:50:47;98214.03;;;5.71;100.00
30182;BME280;16990;49.056;9.240;2022-11-20T05:53:13;98222.06;;;5.58;100.00
30182;BME280;16990;49.056;9.240;2022-11-20T05:55:40;98219.53;;;5.69;100.00
30182;BME280;16990;49.056;9.240;2022-11-20T05:58:07;98229.34;;;5.69;100.00
30182;BME280;16990;49.056;9.240;2022-11-20T06:00:33;98214.31;;;5.63;100.00
30182;BME280;16990;49.056;9.240;2022-11-20T06:03:00;98216.09;;;5.69;100.00
30182;BME280;16990;49.056;9.240;2022-11-20T06:05:27;98220.75;;;5.73;100.00
30182;BME280;16990;49.056;9.240;2022-11-20T06:07:55;98216.53;;;5.66;100.00
30182;BME280;16990;49.056;9.240;2022-11-20T06:10:21;98213.44;;;5.69;100.00
30182;BME280;16990;49.056;9.240;2022-11-20T06:12:48;98218.66;;;5.82;100.00
30182;BME280;16990;49.056;9.240;2022-11-20T06:15:15;98211.03;;;5.92;100.00
30182;BME280;16990;49.056;9.240;2022-11-20T06:17:42;98209.22;;;5.86;100.00
30182;BME280;16990;49.056;9.240;2022-11-20T06:20:09;98206.41;;;5.81;100.00
30182;BME280;16990;49.056;9.240;2022-11-20T06:22:37;98207.16;;;5.95;100.00
30182;BME280;16990;49.056;9.240;2022-11-20T06:25:05;98213.66;;;5.99;100.00
30182;BME280;16990;49.056;9.240;2022-11-20T06:27:32;98212.00;;;5.98;100.00
30182;BME280;16990;49.056;9.240;2022-11-20T06:29:58;98213.75;;;5.79;100.00
30182;BME280;16990;49.056;9.240;2022-11-20T06:32:25;98212.44;;;5.70;100.00
30182;BME280;16990;49.056;9.240;2022-11-20T06:34:52;98212.16;;;5.78;100.00
30182;BME280;16990;49.056;9.240;2022-11-20T06:37:18;98210.69;;;5.82;100.00
30182;BME280;16990;49.056;9.240;2022-11-20T06:39:45;98212.19;;;5.71;100.00
30182;BME280;16990;49.056;9.240;2022-11-20T06:42:13;98217.72;;;5.70;100.00
30182;BME280;16990;49.056;9.240;2022-11-20T06:44:40;98224.09;;;5.62;100.00
30182;BME280;16990;49.056;9.240;2022-11-20T06:47:06;98214.72;;;5.60;100.00
30182;BME280;16990;49.056;9.240;2022-11-20T06:49:33;98225.09;;;5.68;100.00
30182;BME280;16990;49.056;9.240;2022-11-20T06:52:02;98221.59;;;5.67;100.00
30182;BME280;16990;49.056;9.240;2022-11-20T06:54:29;98224.84;;;5.69;100.00
30182;BME280;16990;49.056;9.240;2022-11-20T06:56:55;98228.75;;;5.67;100.00
30182;BME280;16990;49.056;9.240;2022-11-20T06:59:23;98234.75;;;5.56;100.00
30182;BME280;16990;49.056;9.240;2022-11-20T07:01:50;98234.75;;;5.56;100.00
30182;BME280;16990;49.056;9.240;2022-11-20T07:04:17;98241.25;;;5.60;100.00
30182;BME280;16990;49.056;9.240;2022-11-20T07:06:43;98234.38;;;5.45;100.00
30182;BME280;16990;49.056;9.240;2022-11-20T07:09:10;98248.25;;;5.47;100.00
30182;BME280;16990;49.056;9.240;2022-11-20T07:11:37;98245.44;;;5.42;100.00
30182;BME280;16990;49.056;9.240;2022-11-20T07:14:04;98243.81;;;5.41;100.00
30182;BME280;16990;49.056;9.240;2022-11-20T07:16:32;98243.81;;;5.41;100.00
30182;BME280;16990;49.056;9.240;2022-11-20T07:18:59;98252.09;;;5.51;100.00
30182;BME280;16990;49.056;9.240;2022-11-20T07:21:25;98253.91;;;5.58;100.00
30182;BME280;16990;49.056;9.240;2022-11-20T07:23:52;98250.06;;;5.53;100.00
30182;BME280;16990;49.056;9.240;2022-11-20T07:26:19;98247.66;;;5.45;100.00
30182;BME280;16990;49.056;9.240;2022-11-20T07:28:45;98249.69;;;5.43;100.00
30182;BME280;16990;49.056;9.240;2022-11-20T07:31:12;98246.09;;;5.31;100.00
30182;BME280;16990;49.056;9.240;2022-11-20T07:33:40;98252.78;;;5.40;100.00
30182;BME280;16990;49.056;9.240;2022-11-20T07:36:07;98250.59;;;5.62;100.00
30182;BME280;16990;49.056;9.240;2022-11-20T07:38:34;98255.88;;;5.69;100.00
30182;BME280;16990;49.056;9.240;2022-11-20T07:41:01;98252.63;;;5.67;100.00
30182;BME280;16990;49.056;9.240;2022-11-20T07:43:27;98256.03;;;5.74;100.00
30182;BME280;16990;49.056;9.240;2022-11-20T07:45:55;98251.25;;;5.58;100.00
30182;BME280;16990;49.056;9.240;2022-11-20T07:48:22;98264.22;;;5.72;100.00
30182;BME280;16990;49.056;9.240;2022-11-20T07:50:53;98257.53;;;5.70;100.00
30182;BME280;16990;49.056;9.240;2022-11-20T07:53:20;98250.66;;;5.56;100.00
30182;BME280;16990;49.056;9.240;2022-11-20T07:55:47;98262.47;;;5.53;100.00
30182;BME280;16990;49.056;9.240;2022-11-20T07:58:14;98251.06;;;5.52;100.00
30182;BME280;16990;49.056;9.240;2022-11-20T08:00:41;98257.53;;;5.70;100.00
30182;BME280;16990;49.056;9.240;2022-11-20T08:03:07;98262.38;;;5.73;100.00
30182;BME280;16990;49.056;9.240;2022-11-20T08:05:34;98258.31;;;5.70;100.00
30182;BME280;16990;49.056;9.240;2022-11-20T08:08:02;98260.72;;;5.79;100.00
30182;BME280;16990;49.056;9.240;2022-11-20T08:10:29;98266.03;;;5.72;100.00
30182;BME280;16990;49.056;9.240;2022-11-20T08:12:56;98255.88;;;5.69;100.00
30182;BME280;16990;49.056;9.240;2022-11-20T08:15:40;98266.13;;;5.90;100.00
30182;BME280;16990;49.056;9.240;2022-11-20T08:18:08;98268.03;;;5.83;100.00
30182;BME280;16990;49.056;9.240;2022-11-20T08:20:36;98273.53;;;5.82;100.00
30182;BME280;16990;49.056;9.240;2022-11-20T08:23:05;98276.59;;;5.85;100.00
30182;BME280;16990;49.056;9.240;2022-11-20T08:25:33;98277.78;;;5.89;100.00
30182;BME280;16990;49.056;9.240;2022-11-20T08:28:02;98289.44;;;5.82;100.00
30182;BME280;16990;49.056;9.240;2022-11-20T08:30:30;98276.25;;;5.75;100.00
30182;BME280;16990;49.056;9.240;2022-11-20T08:33:01;98279.13;;;5.67;100.00
30182;BME280;16990;49.056;9.240;2022-11-20T08:35:28;98279.22;;;5.53;100.00
30182;BME280;16990;49.056;9.240;2022-11-20T08:37:54;98280.78;;;5.68;100.00
30182;BME280;16990;49.056;9.240;2022-11-20T08:40:22;98285.16;;;5.87;100.00
30182;BME280;16990;49.056;9.240;2022-11-20T08:42:50;98283.09;;;5.89;100.00
30182;BME280;16990;49.056;9.240;2022-11-20T08:45:18;98279.53;;;5.70;100.00
30182;BME280;16990;49.056;9.240;2022-11-20T08:47:45;98290.44;;;5.94;100.00
30182;BME280;16990;49.056;9.240;2022-11-20T08:50:13;98279.59;;;5.95;100.00
30182;BME280;16990;49.056;9.240;2022-11-20T08:52:40;98294.50;;;5.96;100.00
30182;BME280;16990;49.056;9.240;2022-11-20T08:55:08;98290.47;;;5.87;100.00
30182;BME280;16990;49.056;9.240;2022-11-20T08:57:36;98280.81;;;6.00;100.00
30182;BME280;16990;49.056;9.240;2022-11-20T09:00:04;98288.50;;;6.08;100.00
30182;BME280;16990;49.056;9.240;2022-11-20T09:02:32;98286.44;;;6.10;100.00
30182;BME280;16990;49.056;9.240;2022-11-20T09:04:59;98293.56;;;6.16;100.00
30182;BME280;16990;49.056;9.240;2022-11-20T09:07:28;98299.06;;;6.14;100.00
30182;BME280;16990;49.056;9.240;2022-11-20T09:09:54;98295.00;;;6.12;100.00
30182;BME280;16990;49.056;9.240;2022-11-20T09:12:21;98298.88;;;6.16;100.00
30182;BME280;16990;49.056;9.240;2022-11-20T09:14:49;98301.66;;;5.89;100.00
30182;BME280;16990;49.056;9.240;2022-11-20T09:17:16;98297.38;;;5.95;100.00
30182;BME280;16990;49.056;9.240;2022-11-20T09:19:42;98292.47;;;5.99;100.00
30182;BME280;16990;49.056;9.240;2022-11-20T09:22:09;98287.38;;;5.90;100.00
30182;BME280;16990;49.056;9.240;2022-11-20T09:24:35;98279.97;;;6.06;100.00
30182;BME280;16990;49.056;9.240;2022-11-20T09:27:04;98293.56;;;6.16;100.00
30182;BME280;16990;49.056;9.240;2022-11-20T09:29:30;98293.44;;;6.29;100.00
30182;BME280;16990;49.056;9.240;2022-11-20T09:31:58;98289.00;;;6.23;100.00
30182;BME280;16990;49.056;9.240;2022-11-20T09:34:25;98297.63;;;6.18;100.00
30182;BME280;16990;49.056;9.240;2022-11-20T09:36:52;98298.22;;;6.21;100.00
30182;BME280;16990;49.056;9.240;2022-11-20T09:39:19;98305.84;;;6.35;100.00
30182;BME280;16990;49.056;9.240;2022-11-20T09:41:59;98302.75;;;6.38;100.00
30182;BME280;16990;49.056;9.240;2022-11-20T09:44:37;98296.47;;;6.58;100.00
30182;BME280;16990;49.056;9.240;2022-11-20T09:47:12;98303.97;;;6.43;100.00
30182;BME280;16990;49.056;9.240;2022-11-20T09:49:57;98295.78;;;6.44;100.00
30182;BME280;16990;49.056;9.240;2022-11-20T09:52:34;98301.16;;;6.56;100.00
30182;BME280;16990;49.056;9.240;2022-11-20T09:55:08;98306.28;;;6.57;100.00
30182;BME280;16990;49.056;9.240;2022-11-20T09:57:38;98307.16;;;6.51;100.00
30182;BME280;16990;49.056;9.240;2022-11-20T10:00:11;98314.03;;;6.59;100.00
30182;BME280;16990;49.056;9.240;2022-11-20T10:02:42;98301.00;;;6.51;100.00
30182;BME280;16990;49.056;9.240;2022-11-20T10:05:17;98309.03;;;6.69;100.00
30182;BME280;16990;49.056;9.240;2022-11-20T10:07:48;98310.34;;;6.60;100.00
30182;BME280;16990;49.056;9.240;2022-11-20T10:10:28;98299.25;;;6.63;100.00
30182;BME280;16990;49.056;9.240;2022-11-20T10:13:06;98302.22;;;6.55;100.00
30182;BME280;16990;49.056;9.240;2022-11-20T10:15:44;98289.19;;;6.72;100.00
30182;BME280;16990;49.056;9.240;2022-11-20T10:18:26;98294.22;;;6.80;100.00
30182;BME280;16990;49.056;9.240;2022-11-20T10:21:03;98288.91;;;6.80;100.00
30182;BME280;16990;49.056;9.240;2022-11-20T10:23:53;98287.66;;;6.82;100.00
30182;BME280;16990;49.056;9.240;2022-11-20T10:26:31;98306.53;;;6.74;100.00
30182;BME280;16990;49.056;9.240;2022-11-20T10:29:11;98300.09;;;6.64;100.00
30182;BME280;16990;49.056;9.240;2022-11-20T10:31:39;98310.94;;;6.62;100.00
30182;BME280;16990;49.056;9.240;2022-11-20T10:34:16;98313.50;;;6.50;100.00
30182;BME280;16990;49.056;9.240;2022-11-20T10:36:51;98306.09;;;6.96;100.00
30182;BME280;16990;49.056;9.240;2022-11-20T10:39:26;98315.91;;;6.77;100.00
30182;BME280;16990;49.056;9.240;2022-11-20T10:41:56;98305.41;;;6.82;100.00
30182;BME280;16990;49.056;9.240;2022-11-20T10:44:27;98310.72;;;6.64;100.00
30182;BME280;16990;49.056;9.240;2022-11-20T10:47:13;98319.66;;;6.69;100.00
30182;BME280;16990;49.056;9.240;2022-11-20T10:49:46;98300.59;;;6.54;100.00
30182;BME280;16990;49.056;9.240;2022-11-20T10:52:20;98306.66;;;6.61;100.00
30182;BME280;16990;49.056;9.240;2022-11-20T10:54:58;98306.41;;;6.44;100.00
30182;BME280;16990;49.056;9.240;2022-11-20T10:57:30;98313.38;;;6.38;100.00
30182;BME280;16990;49.056;9.240;2022-11-20T11:00:05;98313.00;;;6.35;100.00
30182;BME280;16990;49.056;9.240;2022-11-20T11:02:36;98304.44;;;6.33;100.00
30182;BME280;16990;49.056;9.240;2022-11-20T11:05:16;98299.56;;;6.30;100.00
30182;BME280;16990;49.056;9.240;2022-11-20T11:07:45;98311.72;;;6.44;100.00
30182;BME280;16990;49.056;9.240;2022-11-20T11:10:18;98301.16;;;6.37;100.00
30182;BME280;16990;49.056;9.240;2022-11-20T11:12:47;98297.00;;;6.42;100.00
30182;BME280;16990;49.056;9.240;2022-11-20T11:15:25;98294.63;;;6.33;100.00
30182;BME280;16990;49.056;9.240;2022-11-20T11:17:52;98284.13;;;6.45;100.00
30182;BME280;16990;49.056;9.240;2022-11-20T11:20:21;98280.22;;;6.48;100.00
30182;BME280;16990;49.056;9.240;2022-11-20T11:22:51;98273.66;;;6.50;100.00
30182;BME280;16990;49.056;9.240;2022-11-20T11:25:23;98273.28;;;6.47;100.00
30182;BME280;16990;49.056;9.240;2022-11-20T11:27:51;98282.13;;;6.41;100.00
30182;BME280;16990;49.056;9.240;2022-11-20T11:30:20;98265.13;;;6.42;100.00
30182;BME280;16990;49.056;9.240;2022-11-20T11:32:47;98265.03;;;6.55;100.00
30182;BME280;16990;49.056;9.240;2022-11-20T11:35:27;98270.19;;;6.50;100.00
30182;BME280;16990;49.056;9.240;2022-11-20T11:38:03;98264.72;;;6.45;100.00
30182;BME280;16990;49.056;9.240;2022-11-20T11:40:32;98263.31;;;6.42;100.00
30182;BME280;16990;49.056;9.240;2022-11-20T11:43:01;98261.91;;;6.39;100.00
30182;BME280;16990;49.056;9.240;2022-11-20T11:45:29;98253.22;;;6.51;100.00
30182;BME280;16990;49.056;9.240;2022-11-20T11:47:57;98249.03;;;6.62;100.00
30182;BME280;16990;49.056;9.240;2022-11-20T11:50:28;98257.16;;;6.67;100.00
30182;BME280;16990;49.056;9.240;2022-11-20T11:53:05;98254.56;;;6.78;100.00
30182;BME280;16990;49.056;9.240;2022-11-20T11:55:37;98239.00;;;6.82;100.00
30182;BME280;16990;49.056;9.240;2022-11-20T11:58:11;98250.75;;;6.93;100.00
30182;BME280;16990;49.056;9.240;2022-11-20T12:00:40;98239.97;;;6.88;100.00
30182;BME280;16990;49.056;9.240;2022-11-20T12:03:14;98233.09;;;6.98;100.00
30182;BME280;16990;49.056;9.240;2022-11-20T12:05:47;98244.97;;;6.96;100.00
30182;BME280;16990;49.056;9.240;2022-11-20T12:08:23;98236.25;;;6.89;100.00
30182;BME280;16990;49.056;9.240;2022-11-20T12:10:50;98240.56;;;6.90;100.00
30182;BME280;16990;49.056;9.240;2022-11-20T12:13:24;98231.69;;;6.96;100.00
30182;BME280;16990;49.056;9.240;2022-11-20T12:15:53;98238.94;;;6.89;100.00
30182;BME280;16990;49.056;9.240;2022-11-20T12:18:21;98242.63;;;6.88;100.00
30182;BME280;16990;49.056;9.240;2022-11-20T12:20:58;98231.09;;;6.94;100.00
30182;BME280;16990;49.056;9.240;2022-11-20T12:23:35;98226.38;;;6.96;100.00
30182;BME280;16990;49.056;9.240;2022-11-20T12:26:10;98228.44;;;7.12;100.00
30182;BME280;16990;49.056;9.240;2022-11-20T12:28:47;98227.84;;;7.10;100.00
30182;BME280;16990;49.056;9.240;2022-11-20T12:31:30;98224.28;;;7.16;100.00
30182;BME280;16990;49.056;9.240;2022-11-20T12:34:27;98223.13;;;7.12;100.00
30182;BME280;16990;49.056;9.240;2022-11-20T12:37:09;98219.09;;;7.40;100.00
30182;BME280;16990;49.056;9.240;2022-11-20T12:39:41;98226.31;;;7.63;100.00
30182;BME280;16990;49.056;9.240;2022-11-20T12:42:24;98216.09;;;7.48;99.51
30182;BME280;16990;49.056;9.240;2022-11-20T12:48:27;98228.22;;;7.14;97.63
30182;BME280;16990;49.056;9.240;2022-11-20T12:51:13;98216.91;;;7.18;95.70
30182;BME280;16990;49.056;9.240;2022-11-20T12:53:54;98216.44;;;7.21;97.02
30182;BME280;16990;49.056;9.240;2022-11-20T12:56:34;98213.75;;;7.10;97.27
30182;BME280;16990;49.056;9.240;2022-11-20T12:59:20;98218.00;;;7.11;96.90
30182;BME280;16990;49.056;9.240;2022-11-20T13:01:53;98217.34;;;7.15;98.64
30182;BME280;16990;49.056;9.240;2022-11-20T13:04:42;98216.03;;;7.36;98.83
30182;BME280;16990;49.056;9.240;2022-11-20T13:07:13;98221.50;;;7.41;97.90
30182;BME280;16990;49.056;9.240;2022-11-20T13:09:44;98214.91;;;7.44;98.50
30182;BME280;16990;49.056;9.240;2022-11-20T13:12:15;98219.34;;;7.50;97.94
30182;BME280;16990;49.056;9.240;2022-11-20T13:14:50;98215.28;;;7.48;98.39